首页
METAR-TAF:

METAR-TAF

机场 :

Beatrice Municipal Airport

Beatrice, 內布拉斯加州, 美国

纬度: 40-18N, 经度: 096-45W, 海拔: 403米

当前天气观测

该预报发布于24分钟前的02:55 UTC
静风
温度 24°C
湿度 61%
气压 1012 hPa
能見度: 16.1公里
天空无云

METAR: KBIE 170255Z AUTO 00000KT 10SM CLR 24/16 A2989 RMK AO2 T02410157

时间: 22:19 (03:19 UTC)


TAF: 丢失

超过4000个机场的气象观测和天气预报(METAR&TAF报告)。

可查询的气象台以黄色和红色小点在地图上表示。

将鼠标移到小点上方,可查看气象台名称。

然后点击查看天气观测和预报。

如需切换地图:点击带黑十字的绿色按钮放大地图;点击带横线的绿色按钮缩小地图;或者点击绿色箭头查看邻近地区的地图。


METAR-TAF: